createdAt,value
2023-07-18T00:00:28.098Z,4.55
2023-07-18T00:02:54.487Z,4.75
2023-07-18T00:05:20.841Z,4.58
2023-07-18T00:07:47.231Z,4.60
2023-07-18T00:10:13.574Z,4.59
2023-07-18T00:12:39.895Z,4.65
2023-07-18T00:15:06.289Z,4.58
2023-07-18T00:17:32.695Z,4.50
2023-07-18T00:19:59.046Z,4.70
2023-07-18T00:22:25.462Z,4.58
2023-07-18T00:24:51.996Z,4.53
2023-07-18T00:27:18.373Z,4.54
2023-07-18T00:29:44.699Z,4.41
2023-07-18T00:32:11.075Z,4.78
2023-07-18T00:34:37.482Z,4.64
2023-07-18T00:37:03.826Z,4.78
2023-07-18T00:39:30.208Z,4.74
2023-07-18T00:41:56.601Z,4.72
2023-07-18T00:44:22.966Z,4.49
2023-07-18T00:46:49.390Z,4.66
2023-07-18T00:49:15.723Z,4.93
2023-07-18T00:51:42.103Z,4.46
2023-07-18T00:54:10.338Z,4.61
2023-07-18T00:56:37.004Z,4.56
2023-07-18T00:59:03.382Z,4.67
2023-07-18T01:01:29.835Z,4.72
2023-07-18T01:03:56.272Z,4.90
2023-07-18T01:06:22.652Z,4.53
2023-07-18T01:08:48.990Z,4.74
2023-07-18T01:11:15.325Z,4.95
2023-07-18T01:13:41.650Z,4.81
2023-07-18T01:16:08.037Z,4.89
2023-07-18T01:18:34.379Z,4.76
2023-07-18T01:21:00.789Z,4.84
2023-07-18T01:23:27.175Z,4.55
2023-07-18T01:25:53.567Z,4.72
2023-07-18T01:28:19.902Z,5.08
2023-07-18T01:30:46.248Z,4.71
2023-07-18T01:33:12.576Z,4.87
2023-07-18T01:35:38.918Z,4.74
2023-07-18T01:38:05.298Z,4.76
2023-07-18T01:40:31.651Z,4.97
2023-07-18T01:42:58.041Z,4.99
2023-07-18T01:45:24.399Z,4.72
2023-07-18T01:47:50.904Z,4.65
2023-07-18T01:50:17.433Z,4.97
2023-07-18T01:52:43.850Z,4.92
2023-07-18T01:55:10.199Z,4.68
2023-07-18T01:57:36.541Z,4.86
2023-07-18T02:00:02.923Z,4.88
2023-07-18T02:02:29.385Z,4.71
2023-07-18T02:04:55.814Z,4.97
2023-07-18T02:07:22.167Z,4.67
2023-07-18T02:09:48.544Z,4.90
2023-07-18T02:12:14.880Z,4.60
2023-07-18T02:14:41.252Z,4.76
2023-07-18T02:17:07.747Z,4.71
2023-07-18T02:19:34.191Z,4.60
2023-07-18T02:22:00.583Z,5.01
2023-07-18T02:24:26.919Z,4.74
2023-07-18T02:26:53.292Z,4.84
2023-07-18T02:29:19.616Z,4.62
2023-07-18T02:31:45.929Z,4.76
2023-07-18T02:34:12.296Z,5.18
2023-07-18T02:36:38.672Z,5.01
2023-07-18T02:39:05.056Z,4.74
2023-07-18T02:41:31.419Z,4.98
2023-07-18T02:43:57.738Z,4.87
2023-07-18T02:46:24.172Z,5.05
2023-07-18T02:48:50.559Z,5.12
2023-07-18T02:51:17.199Z,4.91
2023-07-18T02:53:43.821Z,5.48
2023-07-18T02:56:10.152Z,5.11
2023-07-18T02:58:36.497Z,5.01
2023-07-18T03:01:02.865Z,4.96
2023-07-18T03:03:29.328Z,5.03
2023-07-18T03:05:55.756Z,5.19
2023-07-18T03:08:22.099Z,5.16
2023-07-18T03:10:48.442Z,4.94
2023-07-18T03:13:14.793Z,4.88
2023-07-18T03:15:41.101Z,5.00
2023-07-18T03:18:07.555Z,4.93
2023-07-18T03:20:34.462Z,5.00
2023-07-18T03:23:00.805Z,5.20
2023-07-18T03:25:27.220Z,4.99
2023-07-18T03:27:53.566Z,4.89
2023-07-18T03:30:19.935Z,4.76
2023-07-18T03:32:46.299Z,4.82
2023-07-18T03:35:12.745Z,4.79
2023-07-18T03:37:39.158Z,4.96
2023-07-18T03:40:05.506Z,4.87
2023-07-18T03:42:31.852Z,5.30
2023-07-18T03:44:58.240Z,5.30
2023-07-18T03:47:24.649Z,5.05
2023-07-18T03:49:51.042Z,5.29
2023-07-18T03:52:17.398Z,4.88
2023-07-18T03:54:43.777Z,5.19
2023-07-18T03:57:10.125Z,5.45
2023-07-18T03:59:36.519Z,5.21
2023-07-18T04:02:02.938Z,4.94
2023-07-18T04:04:29.307Z,5.28
2023-07-18T04:06:55.678Z,5.12
2023-07-18T04:09:22.125Z,5.28
2023-07-18T04:11:48.527Z,5.29
2023-07-18T04:14:14.880Z,5.04
2023-07-18T04:16:41.295Z,4.97
2023-07-18T04:19:07.691Z,5.23
2023-07-18T04:21:34.244Z,5.27
2023-07-18T04:24:00.602Z,5.26
2023-07-18T04:26:26.927Z,5.10
2023-07-18T04:28:53.256Z,5.16
2023-07-18T04:31:19.928Z,5.42
2023-07-18T04:33:46.470Z,5.01
2023-07-18T04:36:12.879Z,5.26
2023-07-18T04:38:39.273Z,4.90
2023-07-18T04:41:05.711Z,5.09
2023-07-18T04:43:32.061Z,4.80
2023-07-18T04:45:58.543Z,5.22
2023-07-18T04:48:24.951Z,5.32
2023-07-18T04:50:51.309Z,5.37
2023-07-18T04:53:17.623Z,4.98
2023-07-18T04:55:43.950Z,5.56
2023-07-18T04:58:10.272Z,5.01
2023-07-18T05:00:36.745Z,5.28
2023-07-18T05:03:03.317Z,5.35
2023-07-18T05:05:29.739Z,5.14
2023-07-18T05:07:56.075Z,5.10
2023-07-18T05:10:22.430Z,4.98
2023-07-18T05:12:48.818Z,5.05
2023-07-18T05:15:15.170Z,5.58
2023-07-18T05:17:41.528Z,5.43
2023-07-18T05:20:07.985Z,5.35
2023-07-18T05:22:34.383Z,5.34
2023-07-18T05:25:00.801Z,5.39
2023-07-18T05:27:27.156Z,5.36
2023-07-18T05:29:53.529Z,5.33
2023-07-18T05:32:19.861Z,5.25
2023-07-18T05:34:46.180Z,5.25
2023-07-18T05:37:12.499Z,5.08
2023-07-18T05:39:38.872Z,5.01
2023-07-18T05:42:05.200Z,4.85
2023-07-18T05:44:31.515Z,4.72
2023-07-18T05:46:57.831Z,4.99
2023-07-18T05:49:24.217Z,5.20
2023-07-18T05:51:50.569Z,5.01
2023-07-18T05:54:16.897Z,4.97
2023-07-18T05:56:43.222Z,4.71
2023-07-18T05:59:09.573Z,4.95
2023-07-18T06:01:36.010Z,4.89
2023-07-18T06:04:02.446Z,5.10
2023-07-18T06:06:28.821Z,5.00
2023-07-18T06:08:55.189Z,4.94
2023-07-18T06:11:21.544Z,5.25
2023-07-18T06:13:47.956Z,5.48
2023-07-18T06:16:14.320Z,5.27
2023-07-18T06:18:40.758Z,5.45
2023-07-18T06:21:07.149Z,5.23
2023-07-18T06:23:33.469Z,4.89
2023-07-18T06:25:59.838Z,4.97
2023-07-18T06:28:26.186Z,5.21
2023-07-18T06:30:52.625Z,4.94
2023-07-18T06:33:18.968Z,4.50
2023-07-18T06:35:45.298Z,4.96
2023-07-18T06:38:11.682Z,5.18
2023-07-18T06:40:38.014Z,4.92
2023-07-18T06:43:04.339Z,4.75
2023-07-18T06:45:30.672Z,4.88
2023-07-18T06:47:57.083Z,4.73
2023-07-18T06:50:23.510Z,4.64
2023-07-18T06:52:49.865Z,4.89
2023-07-18T06:55:16.306Z,4.97
2023-07-18T06:57:44.732Z,4.85
2023-07-18T07:00:11.377Z,4.77
2023-07-18T07:02:37.775Z,4.77
2023-07-18T07:05:04.206Z,4.83
2023-07-18T07:07:30.576Z,4.71
2023-07-18T07:09:56.960Z,5.05
2023-07-18T07:12:35.354Z,4.92
2023-07-18T07:15:02.904Z,4.98
2023-07-18T07:17:29.281Z,5.08
2023-07-18T07:19:55.693Z,5.21
2023-07-18T07:22:22.069Z,5.11
2023-07-18T07:24:48.401Z,5.11
2023-07-18T07:27:14.728Z,4.85
2023-07-18T07:29:41.059Z,4.74
2023-07-18T07:32:07.435Z,4.78
2023-07-18T07:34:36.117Z,5.03
2023-07-18T07:37:03.222Z,5.23
2023-07-18T07:39:29.557Z,5.10
2023-07-18T07:41:55.938Z,5.07
2023-07-18T07:44:22.282Z,5.01
2023-07-18T07:46:48.725Z,4.83
2023-07-18T07:49:15.190Z,5.11
2023-07-18T07:51:41.635Z,5.34
2023-07-18T07:54:07.968Z,4.84
2023-07-18T07:56:34.313Z,4.97
2023-07-18T07:59:11.106Z,4.83
2023-07-18T08:01:38.602Z,5.15
2023-07-18T08:04:05.061Z,4.83
2023-07-18T08:06:31.580Z,5.02
2023-07-18T08:08:57.910Z,5.08
2023-07-18T08:11:24.287Z,5.21
2023-07-18T08:13:50.672Z,5.23
2023-07-18T08:16:17.088Z,5.23
2023-07-18T08:18:43.447Z,5.29
2023-07-18T08:21:09.808Z,5.18
2023-07-18T08:23:36.139Z,5.26
2023-07-18T08:26:02.539Z,5.38
2023-07-18T08:28:28.963Z,4.88
2023-07-18T08:30:55.309Z,5.66
2023-07-18T08:33:21.708Z,5.25
2023-07-18T08:35:48.053Z,5.14
2023-07-18T08:38:14.373Z,5.19
2023-07-18T08:40:40.790Z,5.29
2023-07-18T08:43:07.143Z,5.54
2023-07-18T08:45:33.493Z,5.16
2023-07-18T08:47:59.860Z,5.56
2023-07-18T08:50:26.245Z,5.18
2023-07-18T08:52:52.887Z,5.47
2023-07-18T08:55:19.316Z,5.39
2023-07-18T08:57:45.696Z,5.36
2023-07-18T09:00:12.070Z,4.97
2023-07-18T09:02:38.529Z,5.73
2023-07-18T09:05:04.898Z,5.53
2023-07-18T09:07:31.371Z,5.68
2023-07-18T09:09:57.715Z,5.22
2023-07-18T09:12:24.040Z,5.51
2023-07-18T09:14:50.425Z,5.68
2023-07-18T09:17:16.942Z,5.41
2023-07-18T09:19:43.346Z,5.51
2023-07-18T09:22:09.791Z,5.46
2023-07-18T09:24:36.218Z,5.63
2023-07-18T09:27:02.557Z,5.25
2023-07-18T09:29:28.924Z,5.42
2023-07-18T09:31:55.357Z,5.52
2023-07-18T09:34:21.818Z,5.72
2023-07-18T09:36:48.161Z,5.53
2023-07-18T09:39:14.542Z,5.28
2023-07-18T09:41:40.932Z,5.22
2023-07-18T09:44:30.623Z,5.64
2023-07-18T09:46:53.622Z,5.68
2023-07-18T09:49:20.007Z,5.80
2023-07-18T09:51:46.339Z,5.60
2023-07-18T09:54:12.709Z,5.89
2023-07-18T09:56:39.040Z,5.80
2023-07-18T09:59:05.362Z,5.78
2023-07-18T10:01:31.703Z,6.19
2023-07-18T10:03:58.191Z,6.22
2023-07-18T10:06:24.689Z,5.84
2023-07-18T10:08:51.039Z,6.19
2023-07-18T10:11:17.652Z,6.09
2023-07-18T10:13:44.160Z,5.93
2023-07-18T10:16:10.505Z,6.07
2023-07-18T10:18:36.930Z,6.01
2023-07-18T10:21:03.305Z,5.91
2023-07-18T10:23:29.643Z,6.01
2023-07-18T10:25:56.017Z,6.05
2023-07-18T10:28:22.391Z,5.80
2023-07-18T10:30:48.857Z,6.09
2023-07-18T10:33:15.224Z,6.10
2023-07-18T10:35:41.560Z,5.98
2023-07-18T10:38:07.933Z,6.48
2023-07-18T10:40:34.250Z,6.20
2023-07-18T10:43:00.641Z,6.10
2023-07-18T10:45:26.980Z,5.96
2023-07-18T10:47:53.387Z,5.89
2023-07-18T10:50:20.639Z,5.86
2023-07-18T10:52:47.121Z,5.94
2023-07-18T10:55:13.448Z,6.08
2023-07-18T10:57:39.770Z,5.82
2023-07-18T11:00:06.162Z,6.00
2023-07-18T11:02:32.612Z,6.51
2023-07-18T11:04:58.968Z,6.29
2023-07-18T11:07:25.301Z,6.11
2023-07-18T11:09:51.627Z,6.16
2023-07-18T11:12:18.019Z,6.33
2023-07-18T11:14:44.411Z,6.20
2023-07-18T11:17:10.782Z,5.96
2023-07-18T11:19:37.309Z,5.96
2023-07-18T11:22:03.641Z,6.39
2023-07-18T11:24:30.020Z,6.45
2023-07-18T11:26:56.473Z,6.08
2023-07-18T11:29:22.798Z,5.97
2023-07-18T11:31:49.634Z,5.92
2023-07-18T11:34:16.436Z,6.29
2023-07-18T11:36:42.798Z,6.29
2023-07-18T11:39:09.184Z,6.23
2023-07-18T11:41:35.527Z,6.18
2023-07-18T11:44:01.913Z,6.31
2023-07-18T11:46:28.301Z,5.94
2023-07-18T11:48:54.896Z,6.49
2023-07-18T11:51:21.668Z,6.56
2023-07-18T11:53:48.194Z,6.17
2023-07-18T11:56:14.576Z,5.98
2023-07-18T11:58:40.901Z,6.06
2023-07-18T12:01:07.230Z,6.25
2023-07-18T12:03:33.692Z,6.20
2023-07-18T12:06:00.103Z,6.24
2023-07-18T12:08:26.507Z,6.16
2023-07-18T12:11:04.243Z,5.97
2023-07-18T12:13:35.551Z,7.36
2023-07-18T12:16:01.934Z,6.27
2023-07-18T12:18:28.305Z,6.27
2023-07-18T12:20:54.717Z,5.80
2023-07-18T12:23:21.045Z,6.36
2023-07-18T12:25:47.366Z,6.66
2023-07-18T12:28:13.749Z,7.23
2023-07-18T12:30:40.212Z,14.36
2023-07-18T12:33:08.779Z,10.63
2023-07-18T12:35:36.684Z,7.44
2023-07-18T12:38:03.093Z,17.26
2023-07-18T12:40:29.518Z,6.96
2023-07-18T12:42:56.020Z,6.36
2023-07-18T12:45:24.729Z,6.52
2023-07-18T12:47:52.079Z,7.34
2023-07-18T12:50:18.473Z,9.94
2023-07-18T12:52:44.851Z,7.05
2023-07-18T12:55:11.173Z,8.71
2023-07-18T12:57:37.581Z,10.04
2023-07-18T13:00:03.919Z,9.69
2023-07-18T13:02:30.302Z,7.10
2023-07-18T13:04:56.719Z,6.87
2023-07-18T13:07:23.071Z,7.41
2023-07-18T13:09:49.443Z,7.02
2023-07-18T13:12:15.839Z,6.15
2023-07-18T13:14:42.174Z,6.35
2023-07-18T13:17:08.549Z,5.85
2023-07-18T13:19:34.937Z,6.51
2023-07-18T13:22:01.317Z,6.63
2023-07-18T13:24:27.729Z,6.68
2023-07-18T13:26:54.132Z,7.38
2023-07-18T13:29:20.511Z,6.29
2023-07-18T13:31:46.922Z,6.75
2023-07-18T13:34:14.536Z,6.99
2023-07-18T13:36:41.108Z,6.52
2023-07-18T13:39:07.442Z,6.63
2023-07-18T13:41:33.862Z,6.19
2023-07-18T13:44:00.224Z,5.41
2023-07-18T13:46:26.735Z,5.62
2023-07-18T13:48:53.217Z,5.64
2023-07-18T13:51:19.525Z,5.72
2023-07-18T13:53:45.946Z,5.79
2023-07-18T13:56:12.329Z,5.87
2023-07-18T13:58:38.707Z,5.71
2023-07-18T14:01:05.048Z,5.56
2023-07-18T14:03:35.765Z,5.89
2023-07-18T14:06:03.264Z,5.70
2023-07-18T14:08:29.626Z,6.14
2023-07-18T14:10:56.010Z,5.55
2023-07-18T14:13:22.393Z,5.68
2023-07-18T14:15:48.819Z,5.80
2023-07-18T14:18:15.325Z,5.88
2023-07-18T14:20:41.749Z,6.11
2023-07-18T14:23:08.128Z,6.06
2023-07-18T14:25:34.531Z,6.16
2023-07-18T14:28:00.931Z,6.51
2023-07-18T14:30:27.277Z,6.28
2023-07-18T14:32:53.651Z,6.52
2023-07-18T14:35:20.027Z,6.08
2023-07-18T14:37:46.370Z,5.84
2023-07-18T14:40:12.762Z,6.03
2023-07-18T14:42:39.198Z,5.83
2023-07-18T14:45:05.589Z,5.94
2023-07-18T14:47:31.986Z,5.79
2023-07-18T14:49:58.407Z,5.79
2023-07-18T14:52:24.793Z,6.03
2023-07-18T14:54:51.120Z,5.89
2023-07-18T14:57:17.523Z,6.13
2023-07-18T14:59:43.858Z,5.94
2023-07-18T15:02:10.187Z,5.78
2023-07-18T15:04:36.604Z,5.67
2023-07-18T15:07:02.942Z,5.99
2023-07-18T15:09:29.345Z,5.97
2023-07-18T15:11:55.719Z,5.89
2023-07-18T15:14:22.128Z,5.95
2023-07-18T15:16:48.477Z,6.20
2023-07-18T15:19:14.836Z,5.86
2023-07-18T15:21:41.200Z,5.82
2023-07-18T15:24:07.537Z,5.78
2023-07-18T15:26:33.886Z,5.90
2023-07-18T15:29:00.217Z,5.75
2023-07-18T15:31:26.648Z,5.78
2023-07-18T15:33:53.035Z,5.88
2023-07-18T15:36:19.506Z,5.76
2023-07-18T15:38:46.568Z,6.10
2023-07-18T15:41:12.962Z,5.90
2023-07-18T15:43:39.276Z,5.80
2023-07-18T15:46:05.666Z,5.55
2023-07-18T15:48:32.032Z,5.89
2023-07-18T15:50:58.404Z,5.78
2023-07-18T15:53:24.730Z,5.68
2023-07-18T15:55:52.772Z,5.86
2023-07-18T15:58:19.386Z,5.96
2023-07-18T16:00:45.753Z,5.90
2023-07-18T16:03:12.238Z,6.14
2023-07-18T16:05:38.664Z,5.99
2023-07-18T16:08:05.043Z,5.84
2023-07-18T16:10:31.398Z,5.92
2023-07-18T16:12:57.793Z,5.93
2023-07-18T16:15:24.152Z,5.96
2023-07-18T16:17:50.537Z,5.87
2023-07-18T16:20:16.909Z,5.84
2023-07-18T16:22:43.305Z,5.83
2023-07-18T16:25:09.757Z,5.63
2023-07-18T16:27:36.169Z,5.65
2023-07-18T16:30:02.502Z,5.93
2023-07-18T16:32:29.789Z,6.16
2023-07-18T16:34:57.798Z,5.93
2023-07-18T16:37:24.173Z,5.83
2023-07-18T16:39:50.580Z,6.04
2023-07-18T16:42:24.044Z,5.92
2023-07-18T16:44:51.104Z,6.04
2023-07-18T16:47:17.492Z,6.24
2023-07-18T16:49:43.925Z,6.05
2023-07-18T16:52:10.243Z,5.77
2023-07-18T16:54:36.702Z,5.92
2023-07-18T16:57:03.092Z,6.32
2023-07-18T16:59:29.443Z,6.77
2023-07-18T17:01:55.821Z,6.43
2023-07-18T17:04:22.241Z,6.34
2023-07-18T17:06:48.613Z,6.19
2023-07-18T17:09:14.938Z,6.08
2023-07-18T17:11:41.277Z,5.98
2023-07-18T17:14:07.606Z,6.06
2023-07-18T17:16:34.020Z,5.99
2023-07-18T17:19:00.365Z,5.79
2023-07-18T17:21:26.747Z,5.85
2023-07-18T17:23:53.136Z,5.69
2023-07-18T17:26:19.688Z,5.98
2023-07-18T17:28:46.240Z,5.87
2023-07-18T17:31:12.651Z,5.78
2023-07-18T17:33:39.001Z,6.02
2023-07-18T17:36:05.390Z,5.72
2023-07-18T17:38:31.829Z,5.72
2023-07-18T17:40:58.247Z,5.68
2023-07-18T17:43:24.608Z,5.74
2023-07-18T17:45:50.957Z,5.77
2023-07-18T17:48:17.344Z,5.73
2023-07-18T17:50:43.739Z,6.28
2023-07-18T17:53:10.075Z,6.15
2023-07-18T17:55:36.513Z,6.10
2023-07-18T17:58:02.838Z,5.97
2023-07-18T18:00:29.174Z,6.25
2023-07-18T18:02:55.730Z,5.97
2023-07-18T18:05:22.182Z,6.03
2023-07-18T18:07:48.554Z,6.23
2023-07-18T18:10:14.951Z,6.29
2023-07-18T18:12:41.335Z,6.29
2023-07-18T18:15:07.687Z,6.13
2023-07-18T18:17:34.111Z,6.24
2023-07-18T18:20:00.518Z,6.28
2023-07-18T18:22:26.994Z,6.22
2023-07-18T18:24:53.354Z,5.96
2023-07-18T18:27:19.737Z,6.00
2023-07-18T18:29:46.118Z,6.23
2023-07-18T18:32:12.496Z,6.22
2023-07-18T18:34:42.736Z,6.17
2023-07-18T18:37:13.805Z,6.50
2023-07-18T18:39:40.160Z,6.18
2023-07-18T18:42:06.530Z,6.32
2023-07-18T18:44:32.911Z,6.24
2023-07-18T18:46:59.291Z,6.34
2023-07-18T18:49:27.496Z,6.54
2023-07-18T18:51:54.166Z,6.70
2023-07-18T18:54:20.621Z,6.38
2023-07-18T18:56:47.012Z,6.54
2023-07-18T18:59:13.377Z,6.48
2023-07-18T19:01:39.727Z,6.15
2023-07-18T19:04:06.186Z,6.33
2023-07-18T19:06:32.608Z,6.33
2023-07-18T19:08:58.953Z,6.38
2023-07-18T19:11:25.608Z,6.31
2023-07-18T19:13:52.177Z,6.42
2023-07-18T19:16:32.896Z,6.64
2023-07-18T19:19:04.814Z,6.38
2023-07-18T19:21:31.193Z,6.49
2023-07-18T19:23:57.560Z,6.42
2023-07-18T19:26:23.935Z,6.40
2023-07-18T19:28:50.274Z,6.48
2023-07-18T19:31:16.685Z,6.57
2023-07-18T19:33:43.105Z,7.29
2023-07-18T19:36:09.500Z,6.66
2023-07-18T19:38:37.925Z,6.58
2023-07-18T19:41:05.747Z,6.56
2023-07-18T19:43:32.099Z,6.67
2023-07-18T19:45:58.469Z,6.78
2023-07-18T19:48:24.912Z,6.94
2023-07-18T19:50:51.293Z,6.70
2023-07-18T19:53:17.658Z,6.54
2023-07-18T19:55:44.040Z,6.48
2023-07-18T19:58:10.374Z,6.94
2023-07-18T20:00:36.721Z,7.04
2023-07-18T20:03:03.137Z,7.14
2023-07-18T20:05:29.589Z,6.92
2023-07-18T20:07:55.955Z,6.61
2023-07-18T20:10:22.294Z,6.67
2023-07-18T20:12:48.633Z,6.94
2023-07-18T20:15:15.021Z,7.00
2023-07-18T20:17:41.432Z,7.10
2023-07-18T20:20:07.921Z,7.06
2023-07-18T20:22:34.402Z,6.74
2023-07-18T20:25:00.803Z,6.74
2023-07-18T20:27:27.198Z,6.94
2023-07-18T20:29:53.590Z,6.79
2023-07-18T20:32:19.942Z,6.71
2023-07-18T20:34:46.373Z,6.65
2023-07-18T20:37:12.784Z,6.98
2023-07-18T20:39:39.169Z,7.23
2023-07-18T20:42:05.586Z,6.99
2023-07-18T20:44:31.988Z,6.94
2023-07-18T20:46:58.378Z,7.08
2023-07-18T20:49:24.756Z,7.00
2023-07-18T20:51:51.120Z,7.28
2023-07-18T20:54:17.486Z,7.54
2023-07-18T20:56:43.861Z,7.31
2023-07-18T20:59:10.230Z,7.33
2023-07-18T21:01:36.668Z,7.22
2023-07-18T21:04:03.234Z,7.14
2023-07-18T21:06:29.598Z,6.97
2023-07-18T21:08:55.940Z,7.06
2023-07-18T21:11:22.567Z,7.27
2023-07-18T21:13:49.091Z,7.19
2023-07-18T21:16:15.497Z,7.26
2023-07-18T21:18:41.925Z,7.09
2023-07-18T21:21:08.351Z,7.04
2023-07-18T21:23:34.691Z,7.36
2023-07-18T21:26:01.021Z,7.19
2023-07-18T21:28:27.403Z,6.71
2023-07-18T21:30:53.780Z,7.37
2023-07-18T21:33:20.162Z,7.03
2023-07-18T21:35:46.525Z,6.92
2023-07-18T21:38:12.894Z,7.14
2023-07-18T21:40:39.288Z,7.07
2023-07-18T21:43:05.650Z,7.06
2023-07-18T21:45:32.092Z,7.45
2023-07-18T21:47:58.554Z,7.13
2023-07-18T21:50:24.966Z,7.18
2023-07-18T21:52:51.301Z,7.26
2023-07-18T21:55:17.611Z,7.32
2023-07-18T21:57:44.174Z,7.23
2023-07-18T22:00:10.575Z,7.34
2023-07-18T22:02:37.087Z,7.09
2023-07-18T22:05:03.535Z,7.48
2023-07-18T22:07:29.936Z,7.37
2023-07-18T22:09:56.342Z,7.22
2023-07-18T22:12:22.699Z,7.09
2023-07-18T22:14:49.088Z,7.04
2023-07-18T22:17:15.540Z,7.33
2023-07-18T22:19:41.921Z,7.00
2023-07-18T22:22:08.230Z,7.55
2023-07-18T22:24:34.621Z,7.37
2023-07-18T22:27:00.951Z,7.64
2023-07-18T22:29:27.279Z,7.70
2023-07-18T22:31:53.666Z,7.30
2023-07-18T22:34:19.998Z,7.57
2023-07-18T22:36:46.316Z,7.42
2023-07-18T22:39:25.309Z,7.23
2023-07-18T22:41:58.933Z,7.43
2023-07-18T22:44:25.249Z,7.37
2023-07-18T22:46:51.619Z,7.37
2023-07-18T22:49:18.009Z,7.40
2023-07-18T22:51:44.395Z,7.58
2023-07-18T22:54:10.770Z,7.83
2023-07-18T22:56:37.144Z,7.82
2023-07-18T22:59:03.479Z,7.55
2023-07-18T23:01:29.894Z,7.47
2023-07-18T23:03:56.400Z,7.80
2023-07-18T23:06:22.894Z,8.09
2023-07-18T23:08:49.295Z,7.94
2023-07-18T23:11:15.652Z,8.00
2023-07-18T23:13:42.062Z,7.85
2023-07-18T23:16:08.459Z,7.71
2023-07-18T23:18:35.994Z,7.81
2023-07-18T23:21:02.355Z,7.57
2023-07-18T23:23:28.681Z,7.29
2023-07-18T23:25:55.071Z,7.19
2023-07-18T23:28:21.468Z,7.58
2023-07-18T23:30:47.890Z,7.52
2023-07-18T23:33:14.286Z,7.75
2023-07-18T23:35:40.681Z,7.52
2023-07-18T23:38:07.066Z,7.86
2023-07-18T23:40:33.431Z,8.01
2023-07-18T23:42:59.752Z,8.08
2023-07-18T23:45:26.088Z,7.66
2023-07-18T23:47:52.454Z,7.50
2023-07-18T23:50:18.904Z,7.33
2023-07-18T23:52:45.231Z,7.18
2023-07-18T23:55:11.571Z,7.16
2023-07-18T23:57:37.992Z,7.70
